Ballarat, Victoria

4:05 PM AEST on September 19, 2014 (GMT +1000)
Delacombe | Change Station
CLOSE
Current Station
Personal Weather Station
Location: Ballarat, VICTORIA
Elevation: 1400 ft
Nearby Weather Stations

Elev 1400 ft 37.58 °S, 143.81 °E | Updated 5 minutes ago

Mostly Cloudy
Mostly Cloudy
55.2 °F
Feels Like 55.2 °F
N
0.0
Wind Variable Wind from North
Gusts 0.0 mph

Today
High -- | Low -- °F
--% Chance of Precip.
Yesterday
High -- | Low -- °F
Precip. -- in
6:19 AM 6:18 PM
Waning Crescent, 21% visible
Pressure 30.24 in
Visibility 6.2 miles
Clouds Mostly Cloudy 3800 ft
Dew Point 21 °F
Humidity 26%
Rainfall 0.00 in
Snow Depth Not available.
UV 2 out of 12
Pollen Not available.
Air Quality Not available.
Flu Activity Not available.
METAR YMAV 190600Z AUTO 19013KT 9999 // BKN038 13/08 Q1024

More Conditions Fewer Conditions

Pressure 30.24 in
Visibility 6.2 miles
Clouds Mostly Cloudy 3800 ft
Dew Point 21 °F
Humidity 26%
Rainfall 0.00 in
Snow Depth Not available.
UV 2 out of 12
Pollen Not available.
Air Quality Not available.
Flu Activity Not available.
METAR YMAV 190600Z AUTO 19013KT 9999 // BKN038 13/08 Q1024

More Conditions Fewer Conditions

10-Day Weather Forecast

Almanac

Astronomy

Sep. 19, 2014 Rise Set
Actual Time 6:19 AM AEST 6:18 PM AEST
Civil Twilight 5:53 AM AEST 6:44 PM AEST
Nautical Twilight 5:23 AM AEST 7:14 PM AEST
Astronomical Twilight 4:52 AM AEST 7:45 PM AEST
Moon 3:10 AM AEST 1:50 PM AEST
Length of Visible Light 12h 50m
Length of Day
11h 58m
Tomorrow will be 2m 24s longer.
Waning Crescent, 21% of the Moon is Illuminated
Today
Waning Crescent
Sep 24
New
Oct 1
First Quarter
Oct 8
Full
Oct 15
Last Quarter

Yesterday's Extremes

Country Highs Country Lows

Community

WunderPhotos

Upload Photos

1,754,575 photos uploaded!

Nearby

Snow Depth

Not available.

Earthquake Activity

City Distance Mag. Time & Date
No recent earthquake activity has been reported nearby.
Minimum magnitude displayed is 2.5.

Coastal Water Temperatures

Place Temperature
No Stations Reporting

Nearby Weather Stations